Time;durP1;ratioP1;P1;durP2;ratioP2;P2;SDS_P1;SDS_P2;PMS_P1;PMS_P2;Temp;Humidity;BMP_temperature;BMP_pressure;BME280_temperature;BME280_humidity;BME280_pressure;Samples;Min_cycle;Max_cycle;Signal;HPM_P1;HPM_P2
2022/11/26 00:00:26;;;;;;;3.53;3.08;;;4.90;99.90;;;;;;497214;239;27438;-66
2022/11/26 00:02:28;;;;;;;5.07;3.60;;;5.00;99.90;;;;;;497148;239;27668;-67
2022/11/26 00:04:29;;;;;;;6.22;4.05;;;5.00;99.90;;;;;;497184;239;27539;-67
2022/11/26 00:06:30;;;;;;;7.50;3.08;;;5.10;99.90;;;;;;497166;239;27579;-64
2022/11/26 00:08:31;;;;;;;5.90;3.40;;;5.10;99.90;;;;;;497222;239;27502;-63
2022/11/26 00:10:33;;;;;;;5.20;3.20;;;5.10;99.90;;;;;;497185;239;27452;-66
2022/11/26 00:12:34;;;;;;;5.65;3.33;;;5.20;99.90;;;;;;497204;239;27488;-67
2022/11/26 00:14:35;;;;;;;4.70;3.40;;;5.20;99.90;;;;;;497206;239;27963;-66
2022/11/26 00:16:36;;;;;;;4.35;3.62;;;5.30;99.90;;;;;;497189;239;27971;-67
2022/11/26 00:18:38;;;;;;;6.80;3.28;;;5.30;99.90;;;;;;497220;239;28067;-66
2022/11/26 00:20:39;;;;;;;5.22;3.42;;;5.40;99.90;;;;;;497212;239;27445;-66
2022/11/26 00:22:40;;;;;;;6.47;3.97;;;5.50;99.90;;;;;;497221;239;27508;-68
2022/11/26 00:24:41;;;;;;;6.90;3.72;;;5.50;99.90;;;;;;497191;239;27441;-65
2022/11/26 00:26:43;;;;;;;6.90;4.07;;;5.50;99.90;;;;;;497212;239;27496;-67
2022/11/26 00:28:44;;;;;;;7.28;3.95;;;5.50;99.90;;;;;;497207;239;27477;-69
2022/11/26 00:30:45;;;;;;;6.07;3.70;;;5.50;99.90;;;;;;497198;239;27586;-63
2022/11/26 00:32:46;;;;;;;7.47;4.00;;;5.50;99.90;;;;;;497064;239;27508;-65
2022/11/26 00:34:48;;;;;;;8.93;3.55;;;5.60;99.90;;;;;;497197;239;27904;-64
2022/11/26 00:36:49;;;;;;;10.20;3.90;;;5.60;99.90;;;;;;497164;239;27976;-66
2022/11/26 00:38:50;;;;;;;7.50;4.20;;;5.60;99.90;;;;;;497182;239;27594;-63
2022/11/26 00:40:51;;;;;;;6.95;3.92;;;5.60;99.90;;;;;;497191;239;27444;-64
2022/11/26 00:42:53;;;;;;;6.95;4.15;;;5.60;99.90;;;;;;497216;239;27440;-67
2022/11/26 00:44:54;;;;;;;10.60;3.87;;;5.60;99.90;;;;;;497198;239;27464;-64
2022/11/26 00:46:55;;;;;;;9.13;4.12;;;5.60;99.90;;;;;;497152;239;27595;-64
2022/11/26 00:48:56;;;;;;;4.30;3.33;;;5.60;99.90;;;;;;497236;239;27952;-67
2022/11/26 00:50:58;;;;;;;8.85;3.80;;;5.60;99.90;;;;;;497243;239;27962;-64
2022/11/26 00:52:59;;;;;;;4.93;4.18;;;5.60;99.90;;;;;;497214;239;27997;-66
2022/11/26 00:55:00;;;;;;;6.55;3.50;;;5.60;99.90;;;;;;497240;239;27980;-65
2022/11/26 00:57:02;;;;;;;5.90;3.92;;;5.70;99.90;;;;;;497196;239;27459;-65
2022/11/26 00:59:03;;;;;;;7.03;4.05;;;5.60;99.90;;;;;;497244;239;27391;-67
2022/11/26 01:01:04;;;;;;;7.97;4.18;;;5.70;99.90;;;;;;497225;239;27428;-65
2022/11/26 01:03:05;;;;;;;5.45;3.92;;;5.70;99.90;;;;;;497207;239;27581;-65
2022/11/26 01:05:07;;;;;;;7.12;3.83;;;5.70;99.90;;;;;;497185;239;27455;-66
2022/11/26 01:07:08;;;;;;;9.73;4.57;;;5.70;99.90;;;;;;497174;239;27485;-64
2022/11/26 01:09:09;;;;;;;11.10;4.30;;;5.70;99.90;;;;;;497204;239;27949;-67
2022/11/26 01:11:10;;;;;;;8.80;3.75;;;5.70;99.90;;;;;;497217;239;27962;-64
2022/11/26 01:13:12;;;;;;;6.05;4.40;;;5.70;99.90;;;;;;497223;239;27610;-67
2022/11/26 01:15:13;;;;;;;8.63;4.85;;;5.70;99.90;;;;;;497198;239;27484;-66
2022/11/26 01:17:14;;;;;;;9.70;4.70;;;5.70;99.90;;;;;;497174;239;27543;-66
2022/11/26 01:19:15;;;;;;;6.20;4.25;;;5.80;99.90;;;;;;497234;239;27590;-67
2022/11/26 01:21:17;;;;;;;5.28;3.80;;;5.80;99.90;;;;;;497161;239;27450;-64
2022/11/26 01:23:18;;;;;;;5.97;4.72;;;5.80;99.90;;;;;;497183;239;27511;-65
2022/11/26 01:25:19;;;;;;;9.93;4.05;;;5.80;99.90;;;;;;497178;239;27879;-66
2022/11/26 01:27:20;;;;;;;9.90;5.03;;;5.80;99.90;;;;;;497111;239;27935;-65
2022/11/26 01:29:22;;;;;;;12.70;5.05;;;5.80;99.90;;;;;;497242;239;27587;-68
2022/11/26 01:31:23;;;;;;;9.90;4.82;;;5.80;99.90;;;;;;497181;239;27549;-64
2022/11/26 01:33:24;;;;;;;5.90;4.22;;;5.80;99.90;;;;;;497198;239;27491;-67
2022/11/26 01:35:25;;;;;;;8.85;4.30;;;5.80;99.90;;;;;;497151;239;27490;-66
2022/11/26 01:37:27;;;;;;;7.65;4.10;;;5.80;99.90;;;;;;497192;239;27529;-64
2022/11/26 01:39:28;;;;;;;9.20;4.55;;;5.80;99.90;;;;;;497256;239;27543;-70
2022/11/26 01:41:29;;;;;;;9.45;4.37;;;5.80;99.90;;;;;;497209;239;27889;-66
2022/11/26 01:43:30;;;;;;;9.40;4.50;;;5.80;99.90;;;;;;497216;239;27967;-65
2022/11/26 01:45:32;;;;;;;6.10;4.07;;;5.80;99.90;;;;;;497216;239;27477;-64
2022/11/26 01:47:33;;;;;;;11.45;4.75;;;5.80;99.90;;;;;;497186;239;27469;-65
2022/11/26 01:49:34;;;;;;;6.40;4.22;;;5.80;99.90;;;;;;497235;239;27554;-67
2022/11/26 01:51:35;;;;;;;6.22;3.55;;;5.80;99.90;;;;;;497193;239;27594;-64
2022/11/26 01:53:37;;;;;;;9.63;4.40;;;5.80;99.90;;;;;;497198;239;27475;-65
2022/11/26 01:55:38;;;;;;;8.15;4.03;;;5.80;99.90;;;;;;497175;239;27436;-64
2022/11/26 01:57:39;;;;;;;5.78;3.85;;;5.80;99.90;;;;;;497184;239;27950;-64
2022/11/26 01:59:40;;;;;;;6.18;3.72;;;5.80;99.90;;;;;;497234;239;28081;-67
2022/11/26 02:01:42;;;;;;;5.32;4.20;;;5.70;99.90;;;;;;497229;239;27538;-67
2022/11/26 02:03:43;;;;;;;9.25;4.25;;;5.60;99.90;;;;;;497255;239;27477;-65
2022/11/26 02:05:44;;;;;;;7.72;3.78;;;5.60;99.90;;;;;;497229;239;27487;-65
2022/11/26 02:07:45;;;;;;;5.40;3.35;;;5.50;99.90;;;;;;497210;239;27504;-64
2022/11/26 02:09:47;;;;;;;4.35;3.42;;;5.50;99.90;;;;;;497231;239;27603;-66
2022/11/26 02:11:48;;;;;;;7.82;3.35;;;5.40;99.90;;;;;;497185;239;27964;-66
2022/11/26 02:13:49;;;;;;;5.95;4.00;;;5.40;99.90;;;;;;497208;239;28053;-64
2022/11/26 02:15:51;;;;;;;5.80;3.87;;;5.30;99.90;;;;;;497193;239;28000;-65
2022/11/26 02:17:52;;;;;;;7.68;3.87;;;5.30;99.90;;;;;;497239;239;27562;-64
2022/11/26 02:19:53;;;;;;;6.35;3.40;;;5.30;99.90;;;;;;497225;239;27491;-69
2022/11/26 02:21:54;;;;;;;6.57;4.03;;;5.20;99.90;;;;;;497200;239;27507;-64
2022/11/26 02:23:56;;;;;;;8.73;3.87;;;5.20;99.90;;;;;;497182;239;27614;-65
2022/11/26 02:25:57;;;;;;;5.25;3.67;;;5.10;99.90;;;;;;497170;239;27574;-64
2022/11/26 02:27:58;;;;;;;10.52;4.00;;;5.10;99.90;;;;;;497142;239;27563;-66
2022/11/26 02:29:59;;;;;;;6.07;3.55;;;5.10;99.90;;;;;;497215;239;27496;-67
2022/11/26 02:32:01;;;;;;;7.22;4.50;;;5.10;99.90;;;;;;497189;239;27993;-64
2022/11/26 02:34:02;;;;;;;5.22;3.70;;;5.00;99.90;;;;;;497180;239;27935;-65
2022/11/26 02:36:03;;;;;;;7.03;3.90;;;5.00;99.90;;;;;;497157;239;28104;-64
2022/11/26 02:38:04;;;;;;;4.70;3.78;;;5.00;99.90;;;;;;497170;239;27468;-65
2022/11/26 02:40:06;;;;;;;6.53;3.53;;;4.90;99.90;;;;;;497199;239;27480;-67
2022/11/26 02:42:07;;;;;;;7.05;4.25;;;4.90;99.90;;;;;;497183;239;27524;-65
2022/11/26 02:44:08;;;;;;;7.15;3.80;;;4.90;99.90;;;;;;497191;239;27484;-67
2022/11/26 02:46:09;;;;;;;6.37;3.90;;;4.90;99.90;;;;;;497162;239;27551;-66
2022/11/26 02:48:11;;;;;;;8.88;4.45;;;4.90;99.90;;;;;;497137;239;27555;-64
2022/11/26 02:50:12;;;;;;;5.78;4.05;;;4.80;99.90;;;;;;497204;239;27507;-67
2022/11/26 02:52:13;;;;;;;6.43;4.40;;;4.80;99.90;;;;;;497195;239;27464;-64
2022/11/26 02:54:14;;;;;;;9.15;4.68;;;4.80;99.90;;;;;;497206;239;27977;-64
2022/11/26 02:56:16;;;;;;;8.70;4.32;;;4.80;99.90;;;;;;497172;239;28026;-64
2022/11/26 02:58:17;;;;;;;7.18;4.37;;;4.70;99.90;;;;;;497228;239;27955;-64
2022/11/26 03:00:18;;;;;;;6.07;4.15;;;4.70;99.90;;;;;;497234;239;27615;-67
2022/11/26 03:02:19;;;;;;;9.65;4.55;;;4.70;99.90;;;;;;497218;239;27449;-64
2022/11/26 03:04:21;;;;;;;13.90;5.72;;;4.50;99.90;;;;;;497189;239;27563;-66
2022/11/26 03:06:22;;;;;;;12.37;5.30;;;4.50;99.90;;;;;;497080;239;27433;-64
2022/11/26 03:08:23;;;;;;;10.32;4.95;;;4.40;99.90;;;;;;496988;239;27519;-65
2022/11/26 03:10:26;;;;;;;9.07;5.62;;;4.30;99.90;;;;;;497041;239;27528;-67
2022/11/26 03:12:27;;;;;;;11.38;5.50;;;4.30;99.90;;;;;;496969;239;27534;-64
2022/11/26 03:14:28;;;;;;;15.70;6.10;;;4.30;99.90;;;;;;497075;239;27445;-64
2022/11/26 03:16:29;;;;;;;11.07;6.15;;;4.30;99.90;;;;;;497154;239;28021;-64
2022/11/26 03:18:31;;;;;;;12.15;5.78;;;4.20;99.90;;;;;;497219;239;27983;-67
2022/11/26 03:20:32;;;;;;;12.13;5.40;;;4.30;99.90;;;;;;497185;239;29083;-64
2022/11/26 03:22:33;;;;;;;8.88;5.90;;;4.30;99.90;;;;;;497225;239;27495;-65
2022/11/26 03:24:34;;;;;;;14.40;6.00;;;4.20;99.90;;;;;;497188;239;27445;-65
2022/11/26 03:26:36;;;;;;;14.48;5.18;;;4.20;99.90;;;;;;497212;239;27567;-64
2022/11/26 03:28:37;;;;;;;12.50;5.90;;;4.20;99.90;;;;;;497218;239;27508;-67
2022/11/26 03:30:38;;;;;;;9.48;4.97;;;4.20;99.90;;;;;;497217;239;27453;-64
2022/11/26 03:32:39;;;;;;;12.98;5.20;;;4.10;99.90;;;;;;497187;239;27588;-64
2022/11/26 03:34:41;;;;;;;7.25;4.85;;;4.10;99.90;;;;;;497179;239;27440;-64
2022/11/26 03:36:42;;;;;;;12.40;4.25;;;4.10;99.90;;;;;;497187;239;27575;-64
2022/11/26 03:38:43;;;;;;;6.78;4.60;;;4.10;99.90;;;;;;497247;239;28025;-67
2022/11/26 03:40:44;;;;;;;6.43;4.43;;;4.10;99.90;;;;;;497218;239;27886;-64
2022/11/26 03:42:46;;;;;;;7.57;4.07;;;4.10;99.90;;;;;;497205;239;28085;-64
2022/11/26 03:44:47;;;;;;;9.43;4.82;;;4.20;99.90;;;;;;497190;238;27531;-63
2022/11/26 03:46:48;;;;;;;8.20;4.65;;;4.20;99.90;;;;;;497187;239;27460;-64
2022/11/26 03:48:49;;;;;;;9.02;4.32;;;4.20;99.90;;;;;;497206;239;27567;-68
2022/11/26 03:50:51;;;;;;;7.97;4.55;;;4.10;99.90;;;;;;497207;239;27435;-64
2022/11/26 03:52:52;;;;;;;9.32;5.20;;;4.20;99.90;;;;;;497195;239;27499;-64
2022/11/26 03:54:53;;;;;;;6.95;3.95;;;4.10;99.90;;;;;;497193;239;27456;-66
2022/11/26 03:56:54;;;;;;;7.10;3.92;;;4.10;99.90;;;;;;497149;239;27564;-66
2022/11/26 03:58:56;;;;;;;6.12;3.12;;;4.00;99.90;;;;;;497232;239;27519;-66
2022/11/26 04:00:57;;;;;;;4.60;3.37;;;4.00;99.90;;;;;;497205;239;27543;-64
2022/11/26 04:02:58;;;;;;;6.80;4.03;;;3.90;99.90;;;;;;497206;239;27558;-64
2022/11/26 04:04:59;;;;;;;5.68;3.97;;;3.80;99.90;;;;;;497149;239;28014;-64
2022/11/26 04:07:01;;;;;;;3.90;3.20;;;3.80;99.90;;;;;;497207;239;27905;-64
2022/11/26 04:09:02;;;;;;;5.00;3.42;;;3.80;99.90;;;;;;497235;239;27953;-66
2022/11/26 04:11:03;;;;;;;3.47;3.17;;;3.70;99.90;;;;;;497146;239;27984;-64
2022/11/26 04:13:04;;;;;;;5.28;3.20;;;3.70;99.90;;;;;;497199;239;27532;-64
2022/11/26 04:15:06;;;;;;;5.47;3.17;;;3.70;99.90;;;;;;497108;239;27481;-64
2022/11/26 04:17:07;;;;;;;3.00;2.70;;;3.60;99.90;;;;;;497205;239;27544;-67
2022/11/26 04:19:08;;;;;;;4.90;3.35;;;3.60;99.90;;;;;;497198;239;27479;-66
2022/11/26 04:21:09;;;;;;;5.90;3.10;;;3.60;99.90;;;;;;497192;238;27432;-65
2022/11/26 04:23:11;;;;;;;6.05;3.60;;;3.60;99.90;;;;;;497190;239;27583;-64
2022/11/26 04:25:12;;;;;;;5.70;3.30;;;3.50;99.90;;;;;;497168;239;27513;-65
2022/11/26 04:27:13;;;;;;;6.53;3.55;;;3.40;99.90;;;;;;497188;239;27384;-64
2022/11/26 04:29:14;;;;;;;7.28;3.75;;;3.40;99.90;;;;;;497171;239;27559;-66
2022/11/26 04:31:16;;;;;;;4.45;3.10;;;3.30;99.90;;;;;;497212;239;27489;-64
2022/11/26 04:33:17;;;;;;;4.72;3.22;;;3.40;99.90;;;;;;497152;239;28062;-64
2022/11/26 04:35:18;;;;;;;4.00;3.00;;;3.40;99.90;;;;;;497180;239;28003;-64
2022/11/26 04:37:19;;;;;;;2.78;2.58;;;3.30;99.90;;;;;;497206;239;28020;-64
2022/11/26 04:39:21;;;;;;;5.93;3.45;;;3.30;99.90;;;;;;497215;239;27922;-67
2022/11/26 04:41:22;;;;;;;2.90;2.70;;;3.30;99.90;;;;;;497206;239;27548;-64
2022/11/26 04:43:23;;;;;;;4.15;3.15;;;3.20;99.90;;;;;;497197;239;27477;-65
2022/11/26 04:45:24;;;;;;;3.75;3.03;;;3.30;99.90;;;;;;497187;239;27448;-64
2022/11/26 04:47:26;;;;;;;4.25;3.28;;;3.20;99.90;;;;;;497174;239;27496;-63
2022/11/26 04:49:27;;;;;;;3.20;2.90;;;3.10;99.90;;;;;;497211;239;27480;-68
2022/11/26 04:51:28;;;;;;;2.75;2.47;;;3.00;99.90;;;;;;497208;239;27547;-64
2022/11/26 04:53:29;;;;;;;2.95;2.65;;;3.00;99.90;;;;;;497188;239;27607;-64
2022/11/26 04:55:31;;;;;;;4.43;2.75;;;3.00;99.90;;;;;;497172;239;27440;-64
2022/11/26 04:57:32;;;;;;;4.37;2.75;;;2.90;99.90;;;;;;497209;239;27543;-65
2022/11/26 04:59:33;;;;;;;4.75;3.20;;;2.90;99.90;;;;;;497221;239;27396;-66
2022/11/26 05:01:34;;;;;;;4.32;2.97;;;3.00;99.90;;;;;;497224;239;27862;-64
2022/11/26 05:03:36;;;;;;;3.85;3.00;;;3.00;99.90;;;;;;497198;239;28046;-65
2022/11/26 05:05:37;;;;;;;3.85;3.50;;;3.00;99.90;;;;;;497209;239;27896;-64
2022/11/26 05:07:38;;;;;;;3.10;2.80;;;3.00;99.90;;;;;;497217;239;27828;-64
2022/11/26 05:09:39;;;;;;;2.90;2.60;;;3.00;99.90;;;;;;497196;239;27493;-66
2022/11/26 05:11:41;;;;;;;2.80;2.58;;;2.90;99.90;;;;;;497205;239;27432;-64
2022/11/26 05:13:42;;;;;;;3.55;2.75;;;2.90;99.90;;;;;;497165;239;27497;-65
2022/11/26 05:15:43;;;;;;;2.60;2.40;;;2.90;99.90;;;;;;497173;239;27519;-64
2022/11/26 05:17:44;;;;;;;3.20;2.90;;;2.80;99.90;;;;;;497212;238;27358;-64
2022/11/26 05:19:46;;;;;;;2.67;2.47;;;2.80;99.90;;;;;;497188;239;27511;-67
2022/11/26 05:21:47;;;;;;;2.87;2.67;;;2.80;99.90;;;;;;497230;239;27550;-64
2022/11/26 05:23:48;;;;;;;3.55;2.53;;;2.70;99.90;;;;;;497167;239;27476;-65
2022/11/26 05:25:49;;;;;;;4.25;2.87;;;2.70;99.90;;;;;;497177;239;27535;-64
2022/11/26 05:27:51;;;;;;;3.75;2.95;;;2.80;99.90;;;;;;497195;239;27453;-64
2022/11/26 05:29:52;;;;;;;2.55;2.35;;;2.70;99.90;;;;;;497197;239;27492;-67
2022/11/26 05:31:53;;;;;;;2.75;2.55;;;2.70;99.90;;;;;;497192;239;27976;-64
2022/11/26 05:33:54;;;;;;;5.47;2.80;;;2.70;99.90;;;;;;497187;239;27984;-64
2022/11/26 05:35:56;;;;;;;2.85;2.40;;;2.70;99.90;;;;;;497172;239;27944;-64
2022/11/26 05:37:57;;;;;;;2.75;2.55;;;2.70;99.90;;;;;;497187;239;27532;-64
2022/11/26 05:39:58;;;;;;;2.55;2.35;;;2.70;99.90;;;;;;497203;239;27574;-66
2022/11/26 05:41:59;;;;;;;3.08;2.78;;;2.70;99.90;;;;;;497169;239;27535;-64
2022/11/26 05:44:01;;;;;;;2.47;2.28;;;2.70;99.90;;;;;;497184;239;27481;-64
2022/11/26 05:46:02;;;;;;;2.72;2.47;;;2.70;99.90;;;;;;497180;239;27444;-64
2022/11/26 05:48:03;;;;;;;2.83;2.62;;;2.70;99.90;;;;;;497186;239;27451;-64
2022/11/26 05:50:04;;;;;;;2.30;2.15;;;2.70;99.90;;;;;;497208;239;27487;-66
2022/11/26 05:52:06;;;;;;;4.03;2.87;;;2.70;99.90;;;;;;497176;239;27511;-64
2022/11/26 05:54:07;;;;;;;2.65;2.45;;;2.70;99.90;;;;;;497195;239;27492;-65
2022/11/26 05:56:08;;;;;;;3.92;2.95;;;2.70;99.90;;;;;;497192;239;27508;-64
2022/11/26 05:58:09;;;;;;;2.85;2.65;;;2.80;99.90;;;;;;497183;239;27530;-64
2022/11/26 06:00:11;;;;;;;3.83;2.90;;;2.90;99.90;;;;;;497179;239;27968;-66
2022/11/26 06:02:12;;;;;;;4.15;2.95;;;2.90;99.90;;;;;;497170;239;27988;-64
2022/11/26 06:04:13;;;;;;;3.45;3.15;;;3.00;99.90;;;;;;497168;239;28008;-65
2022/11/26 06:06:14;;;;;;;5.40;3.50;;;3.10;99.90;;;;;;497162;239;27904;-64
2022/11/26 06:08:16;;;;;;;7.37;3.78;;;3.10;99.90;;;;;;497186;239;27512;-64
2022/11/26 06:10:17;;;;;;;3.95;3.47;;;3.10;99.90;;;;;;497204;239;27511;-67
2022/11/26 06:12:18;;;;;;;3.70;3.33;;;3.20;99.90;;;;;;497205;239;27461;-65
2022/11/26 06:14:20;;;;;;;7.82;3.78;;;3.20;99.90;;;;;;497163;239;27507;-65
2022/11/26 06:16:21;;;;;;;5.12;3.67;;;3.30;99.90;;;;;;497162;239;27417;-65
2022/11/26 06:18:22;;;;;;;5.43;4.30;;;3.40;99.90;;;;;;497173;239;27585;-64
2022/11/26 06:20:23;;;;;;;4.62;3.65;;;3.50;99.90;;;;;;497211;238;27477;-66
2022/11/26 06:22:24;;;;;;;6.95;4.45;;;3.50;99.90;;;;;;497210;239;27449;-64
2022/11/26 06:24:26;;;;;;;5.82;4.07;;;3.60;99.90;;;;;;497193;239;27481;-64
2022/11/26 06:26:27;;;;;;;5.95;3.83;;;3.60;99.90;;;;;;497182;239;27444;-65
2022/11/26 06:28:28;;;;;;;6.05;3.70;;;3.70;99.90;;;;;;497227;239;27950;-64
2022/11/26 06:30:29;;;;;;;5.25;4.00;;;3.70;99.90;;;;;;497179;239;28016;-66
2022/11/26 06:32:31;;;;;;;8.80;4.22;;;3.80;99.90;;;;;;497202;239;27913;-64
2022/11/26 06:34:32;;;;;;;6.45;4.30;;;3.90;99.90;;;;;;497168;239;27591;-65
2022/11/26 06:36:33;;;;;;;8.15;5.12;;;3.90;99.90;;;;;;497154;239;27549;-64
2022/11/26 06:38:34;;;;;;;7.25;5.00;;;3.90;99.90;;;;;;497200;239;27448;-65
2022/11/26 06:40:36;;;;;;;6.82;4.28;;;4.00;99.90;;;;;;497192;239;27503;-66
2022/11/26 06:42:37;;;;;;;7.93;4.87;;;4.00;99.90;;;;;;497189;239;27445;-64
2022/11/26 06:44:38;;;;;;;6.25;4.53;;;4.10;99.90;;;;;;497176;239;27479;-65
2022/11/26 06:46:40;;;;;;;6.43;4.20;;;4.10;99.90;;;;;;497211;239;27488;-66
2022/11/26 06:48:41;;;;;;;6.12;4.35;;;4.10;99.90;;;;;;497187;239;27545;-64
2022/11/26 06:50:42;;;;;;;6.68;4.40;;;4.20;99.90;;;;;;497201;239;27518;-67
2022/11/26 06:52:43;;;;;;;8.85;4.80;;;4.20;99.90;;;;;;497157;239;27452;-66
2022/11/26 06:54:45;;;;;;;6.35;4.93;;;4.20;99.90;;;;;;497155;239;27493;-64
2022/11/26 06:56:46;;;;;;;12.88;5.45;;;4.30;99.90;;;;;;497193;239;27922;-64
2022/11/26 06:58:47;;;;;;;7.93;5.45;;;4.40;99.90;;;;;;497193;239;27971;-65
2022/11/26 07:00:48;;;;;;;8.65;5.20;;;4.40;99.90;;;;;;497161;239;28116;-68
2022/11/26 07:02:50;;;;;;;8.95;5.20;;;4.50;99.90;;;;;;497170;239;27967;-64
2022/11/26 07:04:51;;;;;;;7.80;5.32;;;4.50;99.90;;;;;;497162;239;27957;-64
2022/11/26 07:06:52;;;;;;;9.43;5.60;;;4.50;99.90;;;;;;497162;239;28135;-64
2022/11/26 07:08:53;;;;;;;6.68;5.35;;;4.50;99.90;;;;;;497188;239;27539;-64
2022/11/26 07:10:55;;;;;;;8.18;5.65;;;4.60;99.90;;;;;;497180;239;27573;-65
2022/11/26 07:12:56;;;;;;;9.88;6.10;;;4.60;99.90;;;;;;497149;239;27498;-65
2022/11/26 07:14:57;;;;;;;10.20;6.20;;;4.60;99.90;;;;;;497130;239;27512;-66
2022/11/26 07:16:58;;;;;;;9.85;6.18;;;4.70;99.90;;;;;;497167;239;27566;-65
2022/11/26 07:19:00;;;;;;;11.95;6.72;;;4.70;99.90;;;;;;497187;239;27463;-67
2022/11/26 07:21:01;;;;;;;11.32;6.72;;;4.70;99.90;;;;;;497177;239;27518;-67
2022/11/26 07:23:03;;;;;;;7.72;5.43;;;4.80;99.90;;;;;;497173;239;27579;-64
2022/11/26 07:25:03;;;;;;;9.52;5.75;;;4.80;99.90;;;;;;497131;239;27953;-64
2022/11/26 07:27:05;;;;;;;10.20;5.78;;;4.80;99.90;;;;;;497159;239;28649;-64
2022/11/26 07:29:06;;;;;;;8.80;5.95;;;4.90;99.90;;;;;;497184;239;27947;-64
2022/11/26 07:31:07;;;;;;;10.10;5.90;;;4.90;99.90;;;;;;497175;239;27591;-66
2022/11/26 07:33:08;;;;;;;7.43;5.25;;;4.90;99.90;;;;;;497145;239;27445;-64
2022/11/26 07:35:10;;;;;;;5.87;4.72;;;5.00;99.90;;;;;;497180;239;27484;-65
2022/11/26 07:37:11;;;;;;;8.52;5.43;;;5.00;99.90;;;;;;497149;239;27468;-64
2022/11/26 07:39:12;;;;;;;7.55;5.15;;;5.00;99.90;;;;;;497197;239;27496;-64
2022/11/26 07:41:13;;;;;;;11.32;5.28;;;5.00;99.90;;;;;;497205;239;27531;-65
2022/11/26 07:43:15;;;;;;;6.00;4.62;;;5.10;99.90;;;;;;497192;239;27528;-64
2022/11/26 07:45:16;;;;;;;6.47;5.50;;;5.10;99.90;;;;;;497201;239;27562;-66
2022/11/26 07:47:17;;;;;;;7.75;5.60;;;5.10;99.90;;;;;;497221;239;28516;-64
2022/11/26 07:49:18;;;;;;;7.95;5.20;;;5.10;99.90;;;;;;497226;239;27896;-66
2022/11/26 07:51:20;;;;;;;6.28;5.28;;;5.10;99.90;;;;;;497220;239;27972;-65
2022/11/26 07:53:21;;;;;;;7.40;5.20;;;5.10;99.90;;;;;;497215;239;27444;-64
2022/11/26 07:55:22;;;;;;;12.60;5.40;;;5.20;99.90;;;;;;497182;239;27499;-65
2022/11/26 07:57:24;;;;;;;15.63;5.85;;;5.20;99.90;;;;;;497212;239;27577;-65
2022/11/26 07:59:25;;;;;;;9.10;4.75;;;5.20;99.90;;;;;;497211;239;27446;-66
2022/11/26 08:01:28;;;;;;;9.88;5.07;;;5.20;99.90;;;;;;497212;239;27593;-66
2022/11/26 08:03:27;;;;;;;15.25;5.07;;;5.10;99.90;;;;;;497096;239;27444;-65
2022/11/26 08:05:28;;;;;;;8.35;5.47;;;5.10;99.90;;;;;;497191;239;27511;-64
2022/11/26 08:07:30;;;;;;;8.98;5.75;;;5.20;99.90;;;;;;497228;239;27998;-67
2022/11/26 08:09:31;;;;;;;10.15;7.10;;;5.20;99.90;;;;;;497237;239;27542;-64
2022/11/26 08:11:32;;;;;;;10.93;6.25;;;5.20;99.90;;;;;;497195;239;27476;-66
2022/11/26 08:13:34;;;;;;;9.63;6.60;;;5.20;99.90;;;;;;497184;239;27925;-64
2022/11/26 08:15:36;;;;;;;7.55;6.43;;;5.20;99.90;;;;;;497217;239;27915;-67
2022/11/26 08:17:36;;;;;;;14.50;6.15;;;5.20;99.90;;;;;;497151;239;27602;-66
2022/11/26 08:19:37;;;;;;;8.48;6.25;;;5.30;99.90;;;;;;497213;239;27449;-64
2022/11/26 08:21:39;;;;;;;11.02;6.12;;;5.20;99.90;;;;;;497126;239;27480;-64
2022/11/26 08:23:40;;;;;;;7.28;5.80;;;5.30;99.90;;;;;;497169;239;27445;-64
2022/11/26 08:25:41;;;;;;;10.60;5.35;;;5.30;99.90;;;;;;497142;239;27565;-65
2022/11/26 08:27:42;;;;;;;9.35;6.10;;;5.30;99.90;;;;;;497197;239;27579;-68
2022/11/26 08:29:44;;;;;;;12.88;5.82;;;5.30;99.90;;;;;;497216;239;27531;-64
2022/11/26 08:31:45;;;;;;;8.40;5.65;;;5.40;99.90;;;;;;497182;239;28043;-64
2022/11/26 08:33:46;;;;;;;8.13;5.10;;;5.40;99.90;;;;;;497170;239;27960;-64
2022/11/26 08:35:47;;;;;;;10.55;5.97;;;5.40;99.90;;;;;;497214;239;27603;-64
2022/11/26 08:37:49;;;;;;;11.90;6.57;;;5.30;99.90;;;;;;497213;238;27491;-67
2022/11/26 08:39:50;;;;;;;13.68;6.97;;;5.30;99.90;;;;;;497201;239;27453;-64
2022/11/26 08:41:52;;;;;;;10.15;6.97;;;5.30;99.90;;;;;;497208;239;27487;-65
2022/11/26 08:43:52;;;;;;;9.95;6.65;;;5.40;99.90;;;;;;497169;239;27445;-64
2022/11/26 08:45:54;;;;;;;10.20;7.18;;;5.40;99.90;;;;;;497227;239;27889;-65
2022/11/26 08:47:55;;;;;;;9.00;6.62;;;5.40;99.90;;;;;;497235;239;27963;-68
2022/11/26 08:49:56;;;;;;;13.57;7.18;;;5.40;99.90;;;;;;497217;239;27497;-64
2022/11/26 08:51:57;;;;;;;8.88;6.53;;;5.40;99.90;;;;;;497213;239;27586;-65
2022/11/26 08:53:59;;;;;;;9.18;6.45;;;5.40;99.90;;;;;;497206;239;27586;-66
2022/11/26 08:56:00;;;;;;;10.00;6.00;;;5.40;99.90;;;;;;497209;239;27464;-66
2022/11/26 08:58:01;;;;;;;10.80;6.55;;;5.40;99.90;;;;;;497178;239;27622;-68
2022/11/26 09:00:04;;;;;;;11.50;7.35;;;5.40;99.90;;;;;;497205;239;27452;-64
2022/11/26 09:02:04;;;;;;;11.43;6.85;;;5.30;99.90;;;;;;497122;239;27957;-66
2022/11/26 09:04:05;;;;;;;11.38;7.05;;;5.40;99.90;;;;;;497204;239;27991;-64
2022/11/26 09:06:06;;;;;;;12.85;7.80;;;5.30;99.90;;;;;;496839;239;27565;-64
2022/11/26 09:08:07;;;;;;;17.45;8.32;;;5.40;99.90;;;;;;497205;239;27474;-68
2022/11/26 09:10:09;;;;;;;10.13;7.55;;;5.40;99.90;;;;;;497191;239;27654;-65
2022/11/26 09:12:10;;;;;;;11.57;7.72;;;5.40;99.90;;;;;;497182;239;27488;-64
2022/11/26 09:14:11;;;;;;;12.15;7.78;;;5.40;99.90;;;;;;497191;239;27850;-66
2022/11/26 09:16:12;;;;;;;16.23;8.20;;;5.50;99.90;;;;;;497208;239;28012;-64
2022/11/26 09:18:14;;;;;;;10.77;7.82;;;5.50;99.90;;;;;;497234;239;27948;-66
2022/11/26 09:20:15;;;;;;;13.95;8.13;;;5.50;99.90;;;;;;497216;238;27540;-64
2022/11/26 09:22:16;;;;;;;10.57;7.18;;;5.50;99.90;;;;;;497208;239;27491;-65
2022/11/26 09:24:18;;;;;;;11.80;7.00;;;5.50;99.90;;;;;;497208;239;27485;-66
2022/11/26 09:26:22;;;;;;;11.25;7.45;;;5.50;99.90;;;;;;497223;239;27543;-66
2022/11/26 09:28:23;;;;;;;9.20;7.30;;;5.60;99.90;;;;;;496136;239;36431;-65
2022/11/26 09:30:24;;;;;;;10.90;6.72;;;5.60;99.90;;;;;;497210;239;29386;-67
2022/11/26 09:32:25;;;;;;;10.23;7.03;;;5.60;99.90;;;;;;497214;239;27448;-65
2022/11/26 09:34:27;;;;;;;10.02;6.55;;;5.60;99.90;;;;;;497175;239;27477;-67
2022/11/26 09:36:28;;;;;;;7.70;6.00;;;5.60;99.90;;;;;;497197;239;27451;-66
2022/11/26 09:38:29;;;;;;;9.40;7.37;;;5.70;99.90;;;;;;497229;239;27372;-64
2022/11/26 09:40:30;;;;;;;10.82;6.80;;;5.70;99.90;;;;;;497216;239;27496;-65
2022/11/26 09:42:32;;;;;;;11.90;7.50;;;5.70;99.90;;;;;;497157;239;27964;-64
2022/11/26 09:44:33;;;;;;;11.18;7.47;;;5.80;99.90;;;;;;497158;239;27985;-64
2022/11/26 09:46:34;;;;;;;12.95;7.55;;;5.80;99.90;;;;;;497226;238;27611;-64
2022/11/26 09:48:35;;;;;;;10.73;7.57;;;5.80;99.90;;;;;;497231;239;27444;-64
2022/11/26 09:50:37;;;;;;;11.43;7.65;;;5.80;99.90;;;;;;497184;239;27613;-67
2022/11/26 09:52:38;;;;;;;10.90;7.68;;;5.80;99.90;;;;;;497201;239;27452;-64
2022/11/26 09:54:39;;;;;;;12.88;7.30;;;5.80;99.90;;;;;;497183;239;27483;-65
2022/11/26 09:56:40;;;;;;;10.15;6.95;;;5.80;99.90;;;;;;497213;239;27960;-67
2022/11/26 09:58:42;;;;;;;15.73;8.20;;;5.90;99.90;;;;;;497194;239;27523;-64
2022/11/26 10:00:43;;;;;;;12.18;8.23;;;6.00;99.90;;;;;;497206;239;27491;-65
2022/11/26 10:02:44;;;;;;;10.43;7.57;;;6.00;99.90;;;;;;497172;239;27445;-67
2022/11/26 10:04:45;;;;;;;11.18;8.07;;;6.00;99.90;;;;;;497199;239;27551;-67
2022/11/26 10:06:47;;;;;;;13.85;8.30;;;5.90;99.90;;;;;;497214;239;27512;-66
2022/11/26 10:08:48;;;;;;;16.67;9.73;;;5.90;99.90;;;;;;497211;239;27932;-66
2022/11/26 10:10:49;;;;;;;10.80;7.20;;;6.00;99.90;;;;;;497149;239;27959;-66
2022/11/26 10:12:51;;;;;;;12.70;8.27;;;6.00;99.90;;;;;;497170;239;27488;-65
2022/11/26 10:14:52;;;;;;;11.35;8.75;;;6.00;99.90;;;;;;497195;239;27515;-64
2022/11/26 10:16:53;;;;;;;11.73;8.00;;;5.90;99.90;;;;;;497201;239;27585;-68
2022/11/26 10:18:54;;;;;;;10.68;7.80;;;5.90;99.90;;;;;;497187;238;27509;-66
2022/11/26 10:20:56;;;;;;;12.77;8.80;;;5.90;99.90;;;;;;497175;239;27983;-66
2022/11/26 10:22:57;;;;;;;13.85;7.90;;;5.90;99.90;;;;;;497127;239;27932;-64
2022/11/26 10:24:58;;;;;;;10.38;7.28;;;5.90;99.90;;;;;;497186;239;27520;-66
2022/11/26 10:26:59;;;;;;;9.82;6.93;;;5.90;99.90;;;;;;497211;239;27492;-66
2022/11/26 10:29:01;;;;;;;13.10;7.37;;;5.90;99.90;;;;;;497173;238;27458;-64
2022/11/26 10:31:02;;;;;;;10.70;7.40;;;6.00;99.90;;;;;;497169;239;27586;-65
2022/11/26 10:33:03;;;;;;;10.73;6.93;;;6.00;99.90;;;;;;497195;239;28565;-68
2022/11/26 10:35:04;;;;;;;16.40;6.87;;;5.90;99.90;;;;;;497194;239;27544;-64
2022/11/26 10:37:06;;;;;;;13.55;7.30;;;5.90;99.90;;;;;;497197;239;27562;-66